Time;durP1;ratioP1;P1;durP2;ratioP2;P2;SDS_P1;SDS_P2;PMS_P1;PMS_P2;Temp;Humidity;BMP_temperature;BMP_pressure;BME280_temperature;BME280_humidity;BME280_pressure;Samples;Min_cycle;Max_cycle;Signal;HPM_P1;HPM_P2
2022/10/25 00:01:51;;;;;;;0.10;0.10;;;;;;;12.38;100.00;101069.53;5001534;28;20032;-70
2022/10/25 00:04:17;;;;;;;0.10;0.10;;;;;;;12.51;100.00;101070.25;4998639;28;20125;-75
2022/10/25 00:06:42;;;;;;;0.10;0.10;;;;;;;12.50;100.00;101083.81;4995281;28;20157;-70
2022/10/25 00:09:08;;;;;;;0.10;0.10;;;;;;;12.53;100.00;101088.97;5003285;28;20021;-69
2022/10/25 00:11:33;;;;;;;0.10;0.10;;;;;;;12.59;100.00;101085.78;5001224;28;20430;-71
2022/10/25 00:14:01;;;;;;;0.10;0.10;;;;;;;12.58;100.00;101087.59;5001701;28;20052;-68
2022/10/25 00:16:34;;;;;;;0.10;0.10;;;;;;;12.62;100.00;101084.66;5005121;28;20029;-68
2022/10/25 00:18:59;;;;;;;0.10;0.10;;;;;;;12.64;100.00;101083.56;5005880;28;20426;-69
2022/10/25 00:21:24;;;;;;;0.10;0.10;;;;;;;12.63;100.00;101086.34;5002989;28;20085;-72
2022/10/25 00:23:51;;;;;;;0.10;0.10;;;;;;;12.69;100.00;101088.56;5002032;28;20068;-71
2022/10/25 00:26:16;;;;;;;0.10;0.10;;;;;;;12.54;100.00;101077.22;4999718;28;20105;-77
2022/10/25 00:28:41;;;;;;;0.10;0.10;;;;;;;12.72;100.00;101093.69;5015842;28;20095;-70
2022/10/25 00:31:13;;;;;;;0.10;0.10;;;;;;;12.71;100.00;101090.13;5003533;28;20041;-69
2022/10/25 00:33:39;;;;;;;0.10;0.10;;;;;;;12.63;100.00;101095.31;4996488;28;20035;-75
2022/10/25 00:36:21;;;;;;;0.10;0.10;;;;;;;12.66;100.00;101095.06;5003248;28;20120;-69
2022/10/25 00:38:47;;;;;;;0.10;0.10;;;;;;;12.67;100.00;101102.16;4999975;28;20185;-71
2022/10/25 00:41:15;;;;;;;0.10;0.10;;;;;;;12.70;100.00;101101.03;5003987;28;20500;-71
2022/10/25 00:43:48;;;;;;;0.10;0.10;;;;;;;12.68;100.00;101105.69;4997815;28;20113;-75
2022/10/25 00:46:24;;;;;;;0.10;0.10;;;;;;;12.78;100.00;101095.88;4999078;28;20038;-70
2022/10/25 00:49:10;;;;;;;0.10;0.10;;;;;;;12.70;100.00;101109.13;4994551;28;20121;-73
2022/10/25 00:51:38;;;;;;;0.10;0.10;;;;;;;12.81;100.00;101102.84;4996667;28;20046;-71
2022/10/25 00:54:04;;;;;;;0.03;0.03;;;;;;;12.77;100.00;101098.69;5000534;28;20470;-71
2022/10/25 00:56:32;;;;;;;0.10;0.10;;;;;;;12.60;100.00;101084.78;4998253;28;20079;-74
2022/10/25 00:59:00;;;;;;;0.13;0.13;;;;;;;12.75;100.00;101115.81;4997305;28;20033;-71
2022/10/25 01:01:26;;;;;;;0.10;0.10;;;;;;;12.66;100.00;101105.84;4999295;28;20529;-75
2022/10/25 01:03:53;;;;;;;0.10;0.10;;;;;;;12.67;100.00;101106.69;5000705;28;20568;-71
2022/10/25 01:06:23;;;;;;;0.10;0.10;;;;;;;12.65;100.00;101111.34;4999048;28;20136;-72
2022/10/25 01:08:49;;;;;;;0.10;0.10;;;;;;;12.72;100.00;101112.53;4996412;28;20429;-71
2022/10/25 01:11:15;;;;;;;0.10;0.10;;;;;;;12.64;100.00;101106.94;4996588;28;20458;-74
2022/10/25 01:13:40;;;;;;;0.10;0.10;;;;;;;12.75;100.00;101115.00;4998158;28;20109;-74
2022/10/25 01:16:10;;;;;;;0.10;0.10;;;;;;;12.71;100.00;101116.22;5003074;28;20076;-73
2022/10/25 01:18:42;;;;;;;0.00;0.00;;;;;;;12.70;100.00;101117.19;5004570;28;20038;-71
2022/10/25 01:21:32;;;;;;;0.10;0.10;;;;;;;12.79;100.00;101118.28;5002351;28;20034;-69
2022/10/25 01:24:25;;;;;;;0.10;0.10;;;;;;;12.76;100.00;101119.41;4999666;28;20036;-72
2022/10/25 01:27:09;;;;;;;0.10;0.10;;;;;;;12.75;100.00;101125.75;5003944;28;21784;-74
2022/10/25 01:29:46;;;;;;;0.10;0.10;;;;;;;12.82;100.00;101124.28;5001721;28;20018;-73
2022/10/25 01:32:20;;;;;;;0.10;0.10;;;;;;;12.85;100.00;101131.25;5001635;28;20113;-72
2022/10/25 01:35:04;;;;;;;0.10;0.10;;;;;;;12.84;100.00;101122.31;5018057;28;20040;-75
2022/10/25 01:37:37;;;;;;;0.10;0.10;;;;;;;12.84;100.00;101110.66;4999877;28;20041;-70
2022/10/25 01:40:17;;;;;;;0.20;0.20;;;;;;;12.79;100.00;101108.38;5001723;28;20033;-76
2022/10/25 01:42:53;;;;;;;0.10;0.10;;;;;;;12.91;100.00;101128.03;4994820;28;20462;-73
2022/10/25 01:45:23;;;;;;;0.10;0.10;;;;;;;12.79;100.00;101100.28;4998717;28;20493;-72
2022/10/25 01:47:55;;;;;;;0.13;0.13;;;;;;;12.97;100.00;101130.25;5009451;28;20026;-72
2022/10/25 01:50:25;;;;;;;0.20;0.20;;;;;;;13.05;100.00;101126.91;4997008;28;20041;-72
2022/10/25 01:52:50;;;;;;;0.10;0.10;;;;;;;13.08;100.00;101128.47;4997696;28;20033;-71
2022/10/25 01:55:17;;;;;;;0.10;0.10;;;;;;;13.10;100.00;101138.16;5002823;28;20646;-71
2022/10/25 01:57:52;;;;;;;0.10;0.10;;;;;;;13.18;100.00;101132.09;4998229;28;20533;-71
2022/10/25 02:00:19;;;;;;;0.10;0.10;;;;;;;13.00;100.00;101115.63;4997107;28;20026;-69
2022/10/25 02:02:50;;;;;;;0.10;0.10;;;;;;;13.12;100.00;101138.84;4997731;28;20092;-72
2022/10/25 02:05:46;;;;;;;0.05;0.05;;;;;;;13.23;100.00;101135.28;4999931;28;20116;-68
2022/10/25 02:08:38;;;;;;;0.10;0.10;;;;;;;13.13;100.00;101143.25;4999722;28;20410;-72
2022/10/25 02:11:24;;;;;;;0.10;0.10;;;;;;;13.04;100.00;101115.25;4999411;28;20176;-69
2022/10/25 02:13:58;;;;;;;0.10;0.10;;;;;;;13.25;100.00;101146.75;4996053;28;20030;-73
2022/10/25 02:16:43;;;;;;;0.10;0.10;;;;;;;13.26;100.00;101143.06;4996642;28;20370;-70
2022/10/25 02:19:14;;;;;;;0.10;0.10;;;;;;;13.13;100.00;101124.38;5011811;28;20048;-72
2022/10/25 02:21:40;;;;;;;0.10;0.10;;;;;;;13.21;100.00;101142.63;4994594;28;20046;-73
2022/10/25 02:24:11;;;;;;;0.10;0.10;;;;;;;13.23;100.00;101127.19;5002052;28;20583;-71
2022/10/25 02:26:38;;;;;;;0.10;0.10;;;;;;;13.39;100.00;101156.38;4996866;28;20030;-70
2022/10/25 02:29:03;;;;;;;0.10;0.10;;;;;;;13.28;100.00;101146.50;5002950;28;20477;-70
2022/10/25 02:31:29;;;;;;;0.10;0.10;;;;;;;13.34;100.00;101147.84;5001408;28;20042;-72
2022/10/25 02:33:55;;;;;;;0.10;0.10;;;;;;;13.28;100.00;101162.69;4999500;28;20025;-74
2022/10/25 02:36:22;;;;;;;0.30;0.10;;;;;;;13.24;100.00;101142.38;4983319;28;20060;-71
2022/10/25 02:38:48;;;;;;;0.10;0.10;;;;;;;13.33;100.00;101159.63;5000960;28;20033;-70
2022/10/25 02:41:14;;;;;;;0.10;0.10;;;;;;;13.46;100.00;101157.59;5013864;28;20026;-68
2022/10/25 02:43:39;;;;;;;0.10;0.10;;;;;;;13.35;100.00;101165.75;5005535;28;20084;-71
2022/10/25 02:46:09;;;;;;;0.00;0.00;;;;;;;13.44;100.00;101158.72;5001422;28;20788;-68
2022/10/25 02:48:35;;;;;;;0.10;0.10;;;;;;;13.41;100.00;101162.53;4997965;28;20107;-70
2022/10/25 02:51:01;;;;;;;0.00;0.00;;;;;;;13.32;100.00;101152.50;5006881;28;20519;-75
2022/10/25 02:53:27;;;;;;;0.10;0.10;;;;;;;13.44;100.00;101166.81;5002897;28;20025;-71
2022/10/25 02:56:04;;;;;;;0.10;0.10;;;;;;;13.49;100.00;101170.00;5000206;28;20726;-73
2022/10/25 02:58:33;;;;;;;0.10;0.10;;;;;;;13.58;100.00;101160.25;4998440;28;20060;-69
2022/10/25 03:00:59;;;;;;;0.10;0.10;;;;;;;13.50;100.00;101159.06;5003731;28;20021;-72
2022/10/25 03:03:25;;;;;;;0.10;0.10;;;;;;;13.47;100.00;101171.97;5002164;28;20032;-69
2022/10/25 03:05:50;;;;;;;0.10;0.10;;;;;;;13.39;100.00;101171.72;5000572;28;20036;-71
2022/10/25 03:08:16;;;;;;;0.10;0.10;;;;;;;13.53;100.00;101176.81;4999587;28;20022;-69
2022/10/25 03:10:41;;;;;;;0.10;0.10;;;;;;;13.46;100.00;101168.41;5001662;28;20037;-73
2022/10/25 03:13:06;;;;;;;0.10;0.10;;;;;;;13.43;100.00;101179.44;5002736;28;20493;-69
2022/10/25 03:15:32;;;;;;;0.10;0.10;;;;;;;13.43;100.00;101181.31;5005315;28;20033;-69
2022/10/25 03:17:57;;;;;;;0.00;0.00;;;;;;;13.31;100.00;101153.50;5002094;28;20117;-73
2022/10/25 03:20:22;;;;;;;0.10;0.10;;;;;;;13.34;100.00;101177.50;5003100;28;20100;-71
2022/10/25 03:22:48;;;;;;;0.10;0.10;;;;;;;13.14;100.00;101174.63;5002986;28;20117;-73
2022/10/25 03:25:13;;;;;;;0.10;0.10;;;;;;;12.64;100.00;101101.53;5003013;28;20033;-74
2022/10/25 03:27:38;;;;;;;0.10;0.10;;;;;;;13.00;100.00;101169.53;4998390;28;20037;-73
2022/10/25 03:30:04;;;;;;;0.10;0.10;;;;;;;13.08;100.00;101191.34;5002134;28;20049;-72
2022/10/25 03:32:29;;;;;;;0.10;0.10;;;;;;;13.03;100.00;101191.69;4997023;28;20038;-73
2022/10/25 03:34:55;;;;;;;0.10;0.10;;;;;;;13.02;100.00;101191.84;5004069;28;20100;-72
2022/10/25 03:37:20;;;;;;;0.10;0.10;;;;;;;13.03;100.00;101201.63;4997239;28;20479;-71
2022/10/25 03:39:45;;;;;;;0.10;0.10;;;;;;;12.64;100.00;101167.06;5004868;28;20029;-73
2022/10/25 03:42:10;;;;;;;0.10;0.10;;;;;;;12.75;100.00;101201.19;4999678;28;20041;-72
2022/10/25 03:44:36;;;;;;;0.10;0.10;;;;;;;12.81;100.00;101207.91;5020225;28;20116;-71
2022/10/25 03:47:01;;;;;;;0.10;0.10;;;;;;;12.62;100.00;101200.47;5006062;28;20288;-72
2022/10/25 03:49:26;;;;;;;0.10;0.10;;;;;;;12.75;100.00;101220.91;5006736;28;20068;-70
2022/10/25 03:51:52;;;;;;;0.10;0.10;;;;;;;12.74;100.00;101227.28;5006163;28;20049;-71
2022/10/25 03:54:17;;;;;;;0.10;0.10;;;;;;;12.60;100.00;101217.63;5000150;28;20374;-73
2022/10/25 03:56:42;;;;;;;0.10;0.10;;;;;;;12.67;100.00;101227.91;4994161;28;20022;-73
2022/10/25 03:59:08;;;;;;;0.10;0.10;;;;;;;12.80;100.00;101239.41;5001173;28;20327;-68
2022/10/25 04:01:33;;;;;;;0.10;0.10;;;;;;;12.77;100.00;101239.66;4996666;28;20014;-70
2022/10/25 04:03:58;;;;;;;0.10;0.10;;;;;;;12.67;100.00;101238.69;5004159;28;20117;-72
2022/10/25 04:06:24;;;;;;;0.10;0.10;;;;;;;12.74;100.00;101239.91;5002847;28;20101;-70
2022/10/25 04:08:49;;;;;;;0.10;0.10;;;;;;;12.55;100.00;101210.88;4999168;28;20026;-68
2022/10/25 04:11:14;;;;;;;0.00;0.00;;;;;;;12.75;100.00;101237.06;5002325;28;20026;-75
2022/10/25 04:13:39;;;;;;;0.10;0.10;;;;;;;12.74;100.00;101248.81;5009631;28;20117;-71
2022/10/25 04:16:06;;;;;;;0.10;0.10;;;;;;;12.66;100.00;101243.22;5003439;28;20026;-69
2022/10/25 04:18:31;;;;;;;0.10;0.10;;;;;;;12.54;100.00;101244.19;4997259;28;20029;-71
2022/10/25 04:20:57;;;;;;;0.10;0.10;;;;;;;12.47;100.00;101243.81;5003928;28;20441;-72
2022/10/25 04:23:22;;;;;;;0.10;0.10;;;;;;;12.39;100.00;101230.09;5002146;28;20053;-69
2022/10/25 04:25:48;;;;;;;0.10;0.10;;;;;;;12.41;100.00;101250.56;5007449;28;20128;-73
2022/10/25 04:28:13;;;;;;;0.10;0.10;;;;;;;12.41;100.00;101252.38;5001814;28;20037;-71
2022/10/25 04:30:39;;;;;;;0.10;0.10;;;;;;;12.52;100.00;101249.72;5010688;28;20105;-70
2022/10/25 04:33:04;;;;;;;0.10;0.10;;;;;;;12.42;100.00;101240.63;5006444;28;20033;-72
2022/10/25 04:35:29;;;;;;;0.15;0.15;;;;;;;12.42;100.00;101254.09;5005226;28;20153;-73
2022/10/25 04:37:58;;;;;;;0.10;0.10;;;;;;;12.38;100.00;101252.63;4986773;28;20033;-73
2022/10/25 04:40:23;;;;;;;0.10;0.10;;;;;;;12.36;100.00;101257.28;5003920;28;20029;-74
2022/10/25 04:42:49;;;;;;;0.10;0.10;;;;;;;12.16;100.00;101240.84;5017751;28;21860;-71
2022/10/25 04:45:14;;;;;;;0.10;0.10;;;;;;;12.05;100.00;101262.38;5003484;28;20045;-74
2022/10/25 04:47:39;;;;;;;0.10;0.10;;;;;;;12.17;100.00;101257.88;4998774;28;20037;-69
2022/10/25 04:50:05;;;;;;;0.10;0.10;;;;;;;12.07;100.00;101263.97;5006382;28;20029;-70
2022/10/25 04:52:31;;;;;;;0.10;0.10;;;;;;;12.06;100.00;101267.63;4998972;28;20071;-71
2022/10/25 04:54:57;;;;;;;0.10;0.10;;;;;;;12.14;100.00;101267.91;5000898;28;20021;-69
2022/10/25 04:57:22;;;;;;;0.10;0.10;;;;;;;12.22;100.00;101270.00;5003475;28;20029;-69
2022/10/25 04:59:48;;;;;;;0.10;0.10;;;;;;;12.31;100.00;101268.41;4992556;28;20022;-74
2022/10/25 05:02:14;;;;;;;0.10;0.10;;;;;;;12.25;100.00;101268.88;5001527;28;20080;-72
2022/10/25 05:04:39;;;;;;;0.00;0.00;;;;;;;12.30;100.00;101272.09;5011821;28;20069;-70
2022/10/25 05:07:04;;;;;;;0.10;0.10;;;;;;;12.09;100.00;101255.75;5003329;28;20037;-74
2022/10/25 05:09:30;;;;;;;0.10;0.10;;;;;;;12.17;100.00;101279.41;5005242;28;20076;-75
2022/10/25 05:11:55;;;;;;;0.10;0.10;;;;;;;12.15;100.00;101279.53;5001866;28;20115;-77
2022/10/25 05:14:20;;;;;;;0.10;0.10;;;;;;;12.10;100.00;101279.88;5002892;28;20062;-72
2022/10/25 05:16:46;;;;;;;0.10;0.10;;;;;;;12.15;100.00;101282.22;4999930;28;20045;-70
2022/10/25 05:19:11;;;;;;;0.10;0.10;;;;;;;12.11;100.00;101283.41;5002841;28;20462;-72
2022/10/25 05:21:36;;;;;;;0.10;0.10;;;;;;;12.03;100.00;101275.09;5000640;28;20037;-71
2022/10/25 05:24:02;;;;;;;0.10;0.10;;;;;;;12.04;100.00;101284.91;5003212;28;20088;-69
2022/10/25 05:26:27;;;;;;;0.05;0.05;;;;;;;12.05;100.00;101292.84;5003438;28;20030;-71
2022/10/25 05:28:54;;;;;;;0.10;0.10;;;;;;;11.94;100.00;101292.75;5000827;28;20038;-72
2022/10/25 05:31:24;;;;;;;0.15;0.15;;;;;;;11.98;100.00;101288.84;5002354;28;20022;-73
2022/10/25 05:33:52;;;;;;;0.10;0.10;;;;;;;12.08;100.00;101303.38;4996171;28;20149;-71
2022/10/25 05:36:17;;;;;;;0.10;0.10;;;;;;;12.09;100.00;101306.91;5003498;28;20529;-73
2022/10/25 05:38:43;;;;;;;0.10;0.10;;;;;;;12.01;100.00;101299.44;4997984;28;20137;-74
2022/10/25 05:41:10;;;;;;;0.10;0.10;;;;;;;11.97;100.00;101301.47;5000772;28;20037;-72
2022/10/25 05:43:35;;;;;;;0.10;0.10;;;;;;;11.85;100.00;101300.56;5018995;28;20056;-72
2022/10/25 05:46:07;;;;;;;0.00;0.00;;;;;;;11.99;100.00;101309.44;4999937;28;20392;-71
2022/10/25 05:48:33;;;;;;;0.10;0.10;;;;;;;12.05;100.00;101322.44;4996997;28;20033;-71
2022/10/25 05:51:19;;;;;;;0.00;0.00;;;;;;;12.07;100.00;101323.19;4999504;28;20055;-69
2022/10/25 05:53:48;;;;;;;0.10;0.10;;;;;;;11.92;100.00;101305.50;4996156;28;20026;-73
2022/10/25 05:56:14;;;;;;;0.10;0.10;;;;;;;11.86;100.00;101317.56;5002925;28;20037;-73
2022/10/25 05:58:40;;;;;;;0.10;0.10;;;;;;;11.92;100.00;101313.56;4997289;28;20468;-70
2022/10/25 06:01:08;;;;;;;0.10;0.10;;;;;;;11.89;100.00;101327.25;5003108;28;20095;-72
2022/10/25 06:03:33;;;;;;;0.10;0.10;;;;;;;11.81;100.00;101325.13;5000484;28;20026;-71
2022/10/25 06:06:03;;;;;;;0.10;0.10;;;;;;;11.67;100.00;101301.94;5007089;28;20021;-71
2022/10/25 06:08:29;;;;;;;0.10;0.10;;;;;;;11.79;100.00;101333.31;5002735;28;20048;-73
2022/10/25 06:10:55;;;;;;;0.03;0.03;;;;;;;11.79;100.00;101330.63;5001599;28;20220;-70
2022/10/25 06:13:20;;;;;;;0.10;0.10;;;;;;;11.80;100.00;101337.72;5005867;28;20076;-69
2022/10/25 06:15:45;;;;;;;0.10;0.10;;;;;;;11.58;100.00;101329.56;5007866;28;20830;-70
2022/10/25 06:18:11;;;;;;;0.10;0.10;;;;;;;11.58;100.00;101324.16;5004556;28;20121;-71
2022/10/25 06:20:36;;;;;;;0.00;0.00;;;;;;;11.76;100.00;101348.84;4998355;28;20030;-71
2022/10/25 06:23:01;;;;;;;0.10;0.10;;;;;;;11.75;100.00;101330.97;4993453;28;20026;-70
2022/10/25 06:25:27;;;;;;;0.10;0.10;;;;;;;11.91;100.00;101352.22;4995956;28;20423;-70
2022/10/25 06:27:52;;;;;;;0.10;0.10;;;;;;;11.87;100.00;101331.88;4996271;28;20470;-71
2022/10/25 06:30:17;;;;;;;0.10;0.10;;;;;;;11.88;100.00;101345.22;4993912;28;20061;-72
2022/10/25 06:32:43;;;;;;;0.10;0.10;;;;;;;11.73;100.00;101331.09;4999358;28;20030;-72
2022/10/25 06:35:08;;;;;;;0.10;0.10;;;;;;;11.93;100.00;101352.94;4999109;28;20369;-70
2022/10/25 06:37:33;;;;;;;0.10;0.10;;;;;;;12.02;100.00;101352.28;5002720;28;20470;-74
2022/10/25 06:39:58;;;;;;;0.00;0.00;;;;;;;12.03;100.00;101364.75;5008555;28;20071;-69
2022/10/25 06:42:24;;;;;;;0.10;0.10;;;;;;;12.14;100.00;101380.09;4999451;28;20439;-69
2022/10/25 06:44:49;;;;;;;0.10;0.10;;;;;;;12.02;100.00;101370.28;5000187;28;20044;-72
2022/10/25 06:47:14;;;;;;;0.10;0.10;;;;;;;11.95;100.00;101359.94;5000060;28;20026;-72
2022/10/25 06:49:40;;;;;;;0.10;0.10;;;;;;;11.97;100.00;101354.41;4997676;28;20037;-70
2022/10/25 06:52:05;;;;;;;0.10;0.10;;;;;;;12.19;100.00;101382.41;5005425;28;20114;-72
2022/10/25 06:54:30;;;;;;;0.10;0.10;;;;;;;12.18;100.00;101376.19;4990156;28;20469;-71
2022/10/25 06:56:56;;;;;;;0.10;0.10;;;;;;;12.26;100.00;101389.06;4998852;28;20030;-74
2022/10/25 06:59:22;;;;;;;0.10;0.10;;;;;;;12.32;100.00;101385.91;5005010;28;20397;-73
2022/10/25 07:01:48;;;;;;;0.10;0.10;;;;;;;12.27;100.00;101366.56;5012949;28;20454;-73
2022/10/25 07:04:14;;;;;;;0.10;0.10;;;;;;;12.18;100.00;101391.50;5003338;28;20112;-73
2022/10/25 07:06:39;;;;;;;0.10;0.10;;;;;;;12.07;100.00;101379.69;5008576;28;20036;-72
2022/10/25 07:09:05;;;;;;;0.05;0.05;;;;;;;12.20;100.00;101397.59;4990248;28;20026;-71
2022/10/25 07:11:31;;;;;;;0.00;0.00;;;;;;;12.25;100.00;101404.38;4998135;28;20034;-72
2022/10/25 07:13:58;;;;;;;0.00;0.00;;;;;;;12.18;100.00;101407.66;4995486;28;20370;-71
2022/10/25 07:16:24;;;;;;;0.10;0.10;;;;;;;12.18;100.00;101403.13;4998583;28;20473;-71
2022/10/25 07:18:49;;;;;;;0.10;0.10;;;;;;;12.18;100.00;101407.66;4998133;28;20528;-72
2022/10/25 07:21:19;;;;;;;0.00;0.00;;;;;;;12.30;100.00;101404.00;4993986;28;20034;-70
2022/10/25 07:23:44;;;;;;;0.10;0.10;;;;;;;12.15;100.00;101414.09;5003649;28;20045;-73
2022/10/25 07:26:12;;;;;;;0.00;0.00;;;;;;;12.28;100.00;101408.66;5000779;28;20033;-73
2022/10/25 07:28:38;;;;;;;0.10;0.10;;;;;;;12.31;100.00;101413.81;5004585;28;20042;-71
2022/10/25 07:31:03;;;;;;;0.10;0.10;;;;;;;12.09;100.00;101390.34;4985052;28;20112;-74
2022/10/25 07:33:29;;;;;;;0.10;0.10;;;;;;;12.22;100.00;101414.50;4999975;28;20034;-72
2022/10/25 07:35:55;;;;;;;0.10;0.10;;;;;;;12.27;100.00;101418.56;5003349;28;20072;-73
2022/10/25 07:38:21;;;;;;;0.10;0.10;;;;;;;12.37;100.00;101423.25;4998333;28;20064;-74
2022/10/25 07:40:46;;;;;;;0.08;0.08;;;;;;;12.26;100.00;101408.78;5000373;28;20433;-73
2022/10/25 07:43:11;;;;;;;0.10;0.10;;;;;;;12.28;100.00;101419.41;5000462;28;20033;-74
2022/10/25 07:45:37;;;;;;;0.10;0.10;;;;;;;12.34;100.00;101420.78;4996124;28;20057;-76
2022/10/25 07:48:03;;;;;;;0.10;0.10;;;;;;;12.21;100.00;101394.81;4997528;28;20029;-76
2022/10/25 07:50:28;;;;;;;0.10;0.10;;;;;;;12.37;100.00;101420.56;4992918;28;20387;-75
2022/10/25 07:52:56;;;;;;;0.10;0.10;;;;;;;12.51;100.00;101419.50;4998317;28;20040;-73
2022/10/25 07:55:21;;;;;;;0.10;0.10;;;;;;;12.54;100.00;101409.38;4998591;28;20092;-73
2022/10/25 07:57:47;;;;;;;0.00;0.00;;;;;;;12.56;100.00;101420.88;4995880;28;20554;-75
2022/10/25 08:00:12;;;;;;;0.10;0.10;;;;;;;12.45;100.00;101413.59;4997383;28;20034;-72
2022/10/25 08:02:37;;;;;;;0.10;0.10;;;;;;;12.78;100.00;101439.88;5015992;28;20084;-71
2022/10/25 08:05:03;;;;;;;0.10;0.10;;;;;;;12.74;100.00;101421.25;5009680;28;20042;-77
2022/10/25 08:07:28;;;;;;;0.10;0.10;;;;;;;12.89;100.00;101438.06;5009364;28;20065;-73
2022/10/25 08:09:53;;;;;;;0.10;0.10;;;;;;;13.02;100.00;101456.84;5006206;28;20112;-74
2022/10/25 08:12:19;;;;;;;0.10;0.10;;;;;;;12.85;100.00;101439.28;4999387;28;20038;-75
2022/10/25 08:14:44;;;;;;;0.10;0.10;;;;;;;12.84;100.00;101442.13;4983553;28;20026;-76
2022/10/25 08:17:09;;;;;;;0.10;0.10;;;;;;;13.02;100.00;101437.97;4998942;28;20034;-70
2022/10/25 08:19:35;;;;;;;0.10;0.10;;;;;;;13.29;100.00;101469.13;5004548;28;20030;-74
2022/10/25 08:22:00;;;;;;;0.10;0.10;;;;;;;13.42;100.00;101460.09;4997071;28;20467;-72
2022/10/25 08:24:25;;;;;;;0.00;0.00;;;;;;;13.43;100.00;101462.66;5000850;28;20034;-75
2022/10/25 08:26:51;;;;;;;0.13;0.13;;;;;;;13.57;100.00;101464.22;4993214;28;20423;-70
2022/10/25 08:29:16;;;;;;;0.10;0.10;;;;;;;13.68;100.00;101443.63;5003994;28;20480;-71
2022/10/25 08:31:41;;;;;;;0.10;0.10;;;;;;;13.71;100.00;101457.72;4999875;28;20038;-70
2022/10/25 08:34:07;;;;;;;0.00;0.00;;;;;;;13.86;100.00;101466.41;5005595;28;20048;-69
2022/10/25 08:36:32;;;;;;;0.10;0.10;;;;;;;13.72;100.00;101445.94;5002389;28;20121;-74
2022/10/25 08:38:57;;;;;;;0.10;0.10;;;;;;;13.75;100.00;101461.03;4996270;28;20126;-72
2022/10/25 08:41:32;;;;;;;0.10;0.10;;;;;;;13.84;100.00;101456.72;4999370;28;20030;-71
2022/10/25 08:44:10;;;;;;;0.10;0.10;;;;;;;13.85;100.00;101463.84;5011675;28;20056;-71
2022/10/25 08:46:53;;;;;;;0.10;0.10;;;;;;;13.78;100.00;101469.75;4998299;28;20025;-69
2022/10/25 08:49:30;;;;;;;0.10;0.10;;;;;;;13.91;100.00;101464.19;4993421;28;20038;-74
2022/10/25 08:51:57;;;;;;;0.10;0.10;;;;;;;13.89;100.00;101451.81;5004648;28;20030;-72
2022/10/25 08:54:32;;;;;;;0.13;0.13;;;;;;;13.89;100.00;101474.25;4999069;28;20088;-71
2022/10/25 08:57:09;;;;;;;0.10;0.10;;;;;;;13.78;100.00;101483.22;4998196;28;20033;-73
2022/10/25 08:59:37;;;;;;;0.10;0.10;;;;;;;14.17;100.00;101473.84;4992293;28;20057;-70
2022/10/25 09:02:11;;;;;;;0.10;0.10;;;;;;;14.27;100.00;101479.31;5001251;28;20018;-71
2022/10/25 09:04:37;;;;;;;0.10;0.10;;;;;;;14.14;100.00;101465.97;4980028;28;20092;-74
2022/10/25 09:07:36;;;;;;;0.10;0.10;;;;;;;14.14;100.00;101493.84;5006306;28;20113;-73
2022/10/25 09:10:07;;;;;;;0.10;0.10;;;;;;;14.27;100.00;101482.03;4996238;28;20069;-69
2022/10/25 09:12:39;;;;;;;0.10;0.10;;;;;;;13.93;100.00;101486.53;5005048;28;20030;-71
2022/10/25 09:15:31;;;;;;;0.10;0.10;;;;;;;13.92;100.00;101509.09;4995604;28;20117;-72
2022/10/25 09:17:56;;;;;;;0.10;0.10;;;;;;;14.01;100.00;101496.69;4998967;28;20422;-72
2022/10/25 09:20:31;;;;;;;0.10;0.10;;;;;;;14.26;100.00;101505.47;4989945;28;20034;-75
2022/10/25 09:23:04;;;;;;;0.17;0.17;;;;;;;14.15;100.00;101500.94;4998034;28;20041;-71
2022/10/25 09:25:36;;;;;;;0.10;0.10;;;;;;;14.29;100.00;101515.16;4984458;28;20025;-72
2022/10/25 09:28:13;;;;;;;0.10;0.10;;;;;;;14.34;100.00;101510.22;4996226;28;20036;-70
2022/10/25 09:30:42;;;;;;;0.10;0.10;;;;;;;14.33;100.00;101517.47;4989141;28;20032;-70
2022/10/25 09:33:19;;;;;;;0.10;0.10;;;;;;;14.16;100.00;101504.53;4998507;28;20702;-70
2022/10/25 09:35:47;;;;;;;0.10;0.10;;;;;;;14.23;100.00;101503.88;5004929;28;20746;-72
2022/10/25 09:38:40;;;;;;;0.10;0.10;;;;;;;14.40;100.00;101521.38;4991738;28;20371;-72
2022/10/25 09:41:19;;;;;;;0.00;0.00;;;;;;;14.34;100.00;101527.28;5001817;28;20408;-74
2022/10/25 09:43:48;;;;;;;0.10;0.10;;;;;;;13.99;100.00;101503.22;5007657;28;20497;-72
2022/10/25 09:46:18;;;;;;;0.10;0.10;;;;;;;14.10;100.00;101531.03;4994089;28;20041;-73
2022/10/25 09:48:51;;;;;;;0.00;0.00;;;;;;;14.37;100.00;101529.75;5014538;28;20022;-70
2022/10/25 09:51:32;;;;;;;0.10;0.10;;;;;;;14.93;100.00;101527.81;5004152;28;20076;-71
2022/10/25 09:53:59;;;;;;;0.20;0.10;;;;;;;15.14;100.00;101497.22;5002100;28;20068;-70
2022/10/25 09:56:24;;;;;;;0.10;0.10;;;;;;;14.88;100.00;101531.88;4995456;28;20033;-73
2022/10/25 09:58:49;;;;;;;0.10;0.10;;;;;;;14.81;100.00;101528.84;4998851;28;20072;-72
2022/10/25 10:01:17;;;;;;;0.10;0.10;;;;;;;14.60;100.00;101517.97;5000222;28;20426;-72
2022/10/25 10:03:43;;;;;;;0.10;0.10;;;;;;;14.89;100.00;101520.09;4999553;28;20105;-73
2022/10/25 10:06:21;;;;;;;0.10;0.10;;;;;;;15.01;100.00;101527.16;4999188;28;20152;-71
2022/10/25 10:08:50;;;;;;;0.10;0.10;;;;;;;14.97;100.00;101533.81;4993678;28;20430;-76
2022/10/25 10:11:17;;;;;;;0.10;0.10;;;;;;;14.80;100.00;101522.59;5018215;28;20033;-75
2022/10/25 10:13:52;;;;;;;0.10;0.10;;;;;;;14.68;100.00;101511.00;4987494;28;20312;-75
2022/10/25 10:16:31;;;;;;;0.10;0.10;;;;;;;14.45;100.00;101548.00;4982805;28;20057;-74
2022/10/25 10:19:28;;;;;;;0.10;0.10;;;;;;;14.36;100.00;101538.84;4997757;28;20026;-73
2022/10/25 10:22:02;;;;;;;0.10;0.10;;;;;;;14.35;100.00;101553.31;4983824;28;20040;-77
2022/10/25 10:24:30;;;;;;;0.10;0.10;;;;;;;14.40;100.00;101539.44;4999842;28;20041;-71
2022/10/25 10:27:00;;;;;;;0.10;0.10;;;;;;;14.90;100.00;101551.53;4995502;28;20030;-71
2022/10/25 10:29:35;;;;;;;0.05;0.05;;;;;;;15.55;100.00;101545.97;5007749;28;20137;-73
2022/10/25 10:32:21;;;;;;;0.10;0.10;;;;;;;15.58;100.00;101534.88;5001081;28;20030;-72
2022/10/25 10:34:51;;;;;;;0.10;0.10;;;;;;;15.70;100.00;101557.31;4990243;28;20037;-73
2022/10/25 10:37:20;;;;;;;0.10;0.10;;;;;;;15.84;100.00;101547.97;4989914;28;20121;-72
2022/10/25 10:39:52;;;;;;;0.10;0.10;;;;;;;15.82;100.00;101550.78;5000816;28;20061;-72
2022/10/25 10:42:19;;;;;;;0.08;0.08;;;;;;;16.33;100.00;101556.22;4998673;28;20022;-72
2022/10/25 10:45:06;;;;;;;0.10;0.10;;;;;;;16.52;99.47;101559.97;5016303;28;20038;-73
2022/10/25 10:47:55;;;;;;;0.10;0.10;;;;;;;16.38;97.08;101535.00;5004991;28;20493;-74
2022/10/25 10:50:21;;;;;;;0.10;0.10;;;;;;;17.30;96.45;101568.09;4999878;28;20038;-74
2022/10/25 10:52:52;;;;;;;0.00;0.00;;;;;;;16.89;95.51;101552.00;4990630;28;20026;-72
2022/10/25 10:55:32;;;;;;;0.10;0.10;;;;;;;16.93;97.81;101560.69;5000051;28;20477;-71
2022/10/25 10:58:15;;;;;;;0.10;0.10;;;;;;;16.79;97.95;101548.41;4997354;28;20481;-72
2022/10/25 11:00:49;;;;;;;0.10;0.10;;;;;;;17.47;94.02;101563.78;5016546;28;20026;-71
2022/10/25 11:03:39;;;;;;;0.10;0.10;;;;;;;18.06;92.41;101573.56;4997742;28;20522;-72
2022/10/25 11:06:21;;;;;;;0.10;0.10;;;;;;;16.53;94.56;101569.81;5005903;28;20072;-72
2022/10/25 11:08:47;;;;;;;0.00;0.00;;;;;;;16.09;100.00;101562.03;5001483;28;20026;-72
2022/10/25 11:11:20;;;;;;;0.00;0.00;;;;;;;15.57;100.00;101576.47;5004890;28;20411;-75
2022/10/25 11:13:59;;;;;;;0.10;0.10;;;;;;;15.83;100.00;101581.44;5009451;28;20366;-73
2022/10/25 11:16:37;;;;;;;0.10;0.10;;;;;;;15.93;100.00;101560.69;5000714;28;20049;-75
2022/10/25 11:19:05;;;;;;;0.08;0.08;;;;;;;15.88;100.00;101571.09;4993045;28;20060;-73
2022/10/25 11:21:57;;;;;;;0.10;0.10;;;;;;;15.55;100.00;101578.47;5000442;28;20034;-74
2022/10/25 11:24:48;;;;;;;0.10;0.10;;;;;;;15.41;100.00;101582.38;4988708;28;20557;-72
2022/10/25 11:27:31;;;;;;;0.10;0.10;;;;;;;15.42;100.00;101570.56;4975080;28;20046;-75